Latest Coastal Weather Observations for Ballina

IDN60701

Issued at 6:41 am EST Friday 21 July 2017 (issued every 10 minutes, with the page automatically refreshed every 10 minutes)

About coastal observations | Map of coastal stations | Coastal observations for NSW | Marine services | Other Formats
Station Details ID: 058198 Name: BALLINA AIRPORT AWS Lat: -28.84 Lon: 153.56 Height: 1.3 m
Data from the previous 72 hours. | See also: Recent months at Ballina
Date/Time
EST
Temp
°C
Wind Pressure Rain since
9am
mm
Weather Cloud Vis
km
Sea
Height
m
Swell
Dir  Spd
kts
Gust
kts
hPa Trend Height
m
Period
s
Dir
21/06:30am 8.2 WSW 7 9 1018.1 - 0.0 - - 10 - - - -
21/06:00am 7.5 WSW 6 8 1017.9 - 0.0 - - 10 - - - -
21/05:30am 6.0 WSW 5 6 1017.4 - 0.0 - - 10 - - - -
21/05:00am 7.7 WSW 5 6 1017.1 - 0.0 - - 10 - - - -
21/04:30am 9.2 WSW 5 6 1016.7 - 0.0 - - 10 - - - -
21/04:00am 8.7 W 6 7 1016.4 - 0.0 - - 10 - - - -
21/03:30am 9.1 WSW 5 7 1016.2 - 0.0 - - 10 - - - -
21/03:00am 10.5 WSW 7 10 1016.1 - 0.0 - - 10 - - - -
21/02:30am 11.2 WSW 10 13 1016.1 - 0.0 - - 10 - - - -
21/02:00am 11.3 WSW 9 11 1016.0 - 0.0 - - 10 - - - -
21/01:30am 11.7 WSW 10 13 1016.0 - 0.0 - - 10 - - - -
21/01:00am 12.2 WSW 9 13 1016.1 - 0.0 - - 10 - - - -
21/12:30am 11.6 WSW 6 10 1016.1 - 0.0 - - 10 - - - -
21/12:00am 11.8 W 9 13 1015.9 - 0.0 - - 10 - - - -
 
Date/Time
EST
Temp
°C
Wind Pressure Rain since
9am
mm
Weather Cloud Vis
km
Sea
Height
m
Swell
Dir  Spd
kts
Gust
kts
hPa Trend Height
m
Period
s
Dir
20/11:30pm 12.5 W 11 15 1015.8 - 0.0 - - 10 - - - -
20/11:00pm 12.6 W 12 17 1015.8 - 0.0 - - 10 - - - -
20/10:30pm 13.1 W 11 16 1015.7 - 0.0 - - 10 - - - -
20/10:00pm 13.8 W 13 19 1015.4 - 0.0 - - 10 - - - -
20/09:30pm 13.4 W 13 16 1015.4 - 0.0 - - 10 - - - -
20/09:00pm 12.6 W 10 13 1015.2 - 0.0 - - 10 - - - -
20/08:30pm 13.3 WSW 6 9 1015.0 - 0.0 - - 10 - - - -
20/08:00pm 12.5 W 7 11 1014.8 - 0.0 - - 10 - - - -
20/07:30pm 12.6 W 6 8 1014.6 - 0.0 - - 10 - - - -
20/07:00pm 11.0 W 4 7 1014.3 - 0.0 - - 10 - - - -
20/06:30pm 10.6 NNE 2 4 1014.1 - 0.0 - - 10 - - - -
20/06:00pm 12.9 WNW 1 6 1013.8 - 0.0 - - 10 - - - -
20/05:30pm 13.5 NW 1 3 1013.6 - 0.0 - - 10 - - - -
20/05:00pm 16.5 NNW 4 5 1013.4 - 0.0 - - 10 - - - -
20/04:30pm 19.2 NW 5 8 1013.3 - 0.0 - - 10 - - - -
20/04:00pm 20.0 NW 6 11 1013.3 - 0.0 - - 10 - - - -
20/03:30pm 20.4 WNW 9 12 1013.1 - 0.0 - - 10 - - - -
20/03:00pm 20.6 WNW 11 13 1013.0 - 0.0 - - 10 - - - -
20/02:30pm 20.5 NW 8 14 1013.0 - 0.0 - - 10 - - - -
20/02:00pm 20.1 WNW 11 16 1013.3 - 0.0 - - 10 - - - -
20/01:30pm 19.3 WNW 11 17 1013.5 - 0.0 - - 10 - - - -
20/01:00pm 19.1 WNW 13 19 1013.8 - 0.0 - - 10 - - - -
20/12:30pm 19.0 WNW 10 14 1014.1 - 0.0 - - 10 - - - -
20/12:00pm 18.5 WNW 12 15 1014.5 - 0.0 - - 10 - - - -
20/11:30am 18.2 W 11 16 1015.5 - 0.0 - - 10 - - - -
20/11:00am 17.7 W 13 17 1015.9 - 0.0 - - 10 - - - -
20/10:30am 17.1 W 14 18 1016.4 - 0.0 - - 10 - - - -
20/10:00am 16.5 W 13 17 1016.6 - 0.0 - - 10 - - - -
20/09:30am 15.9 W 12 19 1016.7 - 0.0 - - 10 - - - -
20/09:00am 14.9 W 13 19 1016.6 - 0.0 - - 10 - - - -
20/08:30am 14.3 W 13 17 1016.5 - 0.0 - - 10 - - - -
20/08:00am 13.2 W 15 21 1016.4 - 0.0 - - 10 - - - -
20/07:30am 12.4 W 10 14 1016.0 - 0.0 - - 10 - - - -
20/07:00am 11.2 W 11 14 1016.0 - 0.0 - - 10 - - - -
20/06:30am 10.8 W 11 15 1015.8 - 0.0 - - 10 - - - -
20/06:00am 11.2 W 12 17 1015.4 - 0.0 - - 10 - - - -
20/05:30am 11.4 W 13 18 1014.8 - 0.0 - - 10 - - - -
20/05:00am 11.5 W 13 17 1014.3 - 0.0 - - 10 - - - -
20/04:30am 11.7 W 14 18 1013.7 - 0.0 - - 10 - - - -
20/04:00am 11.6 W 12 16 1013.6 - 0.0 - - 10 - - - -
20/03:30am 11.2 W 12 17 1013.3 - 0.0 - - 10 - - - -
20/03:00am 11.0 W 10 14 1013.0 - 0.0 - - 10 - - - -
20/02:30am 10.8 W 10 12 1013.1 - 0.0 - - 10 - - - -
20/02:00am 11.2 W 11 14 1013.1 - 0.0 - - 10 - - - -
20/01:30am 9.4 W 9 11 1013.2 - 0.0 - - 10 - - - -
20/01:00am 9.5 WNW 7 10 1013.3 - 0.0 - - 10 - - - -
20/12:30am 8.8 W 7 8 1013.3 - 0.0 - - 10 - - - -
20/12:00am 9.4 W 7 9 1013.5 - 0.0 - - 10 - - - -
 
Date/Time
EST
Temp
°C
Wind Pressure Rain since
9am
mm
Weather Cloud Vis
km
Sea
Height
m
Swell
Dir  Spd
kts
Gust
kts
hPa Trend Height
m
Period
s
Dir
19/11:30pm 10.0 W 7 10 1013.6 - 0.0 - - 10 - - - -
19/11:00pm 9.7 W 8 9 1013.7 - 0.0 - - 10 - - - -
19/10:30pm 10.2 W 7 9 1013.8 - 0.0 - - 10 - - - -
19/10:00pm 9.3 W 7 10 1013.7 - 0.0 - - 10 - - - -
19/09:30pm 10.6 W 8 9 1013.8 - 0.0 - - 10 - - - -
19/09:00pm 11.4 W 9 11 1013.5 - 0.0 - - 10 - - - -
19/08:30pm 11.8 W 7 11 1013.5 - 0.0 - - 10 - - - -
19/08:00pm 13.0 W 11 17 1012.8 - 0.0 - - 10 - - - -
19/07:30pm 12.9 W 10 16 1012.4 - 0.0 - - 10 - - - -
19/07:00pm 13.8 W 11 17 1011.8 - 0.0 - - 10 - - - -
19/06:30pm 14.4 WNW 17 22 1011.0 - 0.0 - - 10 - - - -
19/06:00pm 14.0 W 11 17 1010.9 - 0.0 - - 10 - - - -
19/05:30pm 15.3 W 19 25 1010.0 - 0.0 - - 10 - - - -
19/05:00pm 15.5 W 19 27 1009.7 - 0.0 - - 10 - - - -
19/04:39pm 16.4 W 19 30 1009.1 - 0.0 - - 10 - - - -
19/04:30pm 16.7 W 19 27 1009.0 - 0.0 - - 10 - - - -
19/04:00pm 17.4 WSW 17 28 1008.8 - 0.0 - - 10 - - - -
19/03:39pm 18.0 WSW 16 26 1008.6 - 0.0 - - 10 - - - -
19/03:30pm 18.2 WSW 16 24 1008.7 - 0.0 - Partly cloudy 10 - - - -
19/03:06pm 18.4 W 15 25 1008.5 - 0.0 - Partly cloudy 10 - - - -
19/03:00pm 18.7 WSW 16 23 1008.4 - 0.0 - Mostly clear 10 - - - -
19/02:37pm 18.8 W 19 29 1007.9 - 0.0 - - 10 - - - -
19/02:30pm 18.8 W 19 28 1008.0 - 0.0 - - 10 - - - -
19/02:00pm 18.6 WSW 23 29 1007.9 - 0.0 - - 10 - - - -
19/01:34pm 18.9 W 22 32 1007.7 - 0.0 - - 10 - - - -
19/01:30pm 18.9 W 21 29 1007.7 - 0.0 - - 10 - - - -
19/01:16pm 19.0 W 17 27 1007.9 - 0.0 - - 10 - - - -
19/01:00pm 18.9 W 18 25 1008.1 - 0.0 - - 10 - - - -
19/12:30pm 18.6 WSW 23 31 1008.4 - 0.0 - - 10 - - - -
19/12:00pm 18.3 W 23 31 1008.9 - 0.0 - - 10 - - - -
19/11:47am 18.4 W 23 33 1009.0 - 0.0 - - 10 - - - -
19/11:30am 18.4 W 22 30 1009.6 - 0.0 - - 10 - - - -
19/11:10am 18.3 W 21 31 1010.0 - 0.0 - - 10 - - - -
19/11:00am 18.3 W 21 28 1010.2 - 0.0 - - 10 - - - -
19/10:30am 17.8 W 22 32 1010.5 - 0.0 - - 10 - - - -
19/10:11am 17.8 W 22 32 1010.9 - 0.0 - - 10 - - - -
19/10:00am 17.5 W 21 30 1010.8 - 0.0 - - 10 - - - -
19/09:30am 17.3 W 20 30 1010.6 - 0.0 - - 10 - - - -
19/09:07am 17.2 W 18 29 1010.9 - 0.0 - - 10 - - - -
19/09:00am 17.4 W 18 25 1010.8 - 0.0 - - 10 - - - -
19/08:30am 16.9 W 24 34 1010.7 - 0.0 - - 10 - - - -
19/08:10am 16.7 W 20 31 1010.6 - 0.0 - - 10 - - - -
19/08:00am 16.4 W 17 26 1010.7 - 0.0 - - 10 - - - -
19/07:48am 15.8 W 15 25 1010.5 - 0.0 - - 10 - - - -
19/07:30am 15.3 WNW 9 13 1010.6 - 0.0 - - 10 - - - -
19/07:00am 14.1 WNW 8 11 1010.5 - 0.0 - - 10 - - - -
19/06:30am 14.4 NW 9 11 1010.4 - 0.0 - - 10 - - - -
19/06:00am 14.4 NW 8 10 1010.3 - 0.0 - - 10 - - - -
19/05:30am 14.2 NW 7 9 1010.2 - 0.0 - - 10 - - - -
19/05:00am 14.5 WNW 6 10 1010.1 - 0.0 - - 10 - - - -
19/04:30am 15.3 WNW 5 8 1010.0 - 0.0 - - 10 - - - -
19/04:00am 16.4 WNW 6 9 1009.7 - 0.0 - - 10 - - - -
19/03:30am 16.1 WNW 6 8 1009.5 - 0.0 - - 10 - - - -
19/03:00am 17.0 NNW 6 9 1009.4 - 0.0 - - 10 - - - -
19/02:30am 17.1 NNW 6 7 1009.7 - 0.0 - - 10 - - - -
19/02:00am 17.2 NNW 8 13 1010.0 - 0.0 - - 10 - - - -
19/01:30am 17.2 NNW 10 12 1010.1 - 0.0 - - 10 - - - -
19/01:00am 17.8 NNW 11 15 1010.2 - 0.0 - Partly cloudy 10 - - - -
19/12:30am 17.7 NNW 9 12 1010.6 - 0.0 - Cloudy 10 - - - -
19/12:00am 18.0 NNW 11 15 1010.9 - 0.0 - Cloudy 10 - - - -
 
Date/Time
EST
Temp
°C
Wind Pressure Rain since
9am
mm
Weather Cloud Vis
km
Sea
Height
m
Swell
Dir  Spd
kts
Gust
kts
hPa Trend Height
m
Period
s
Dir
18/11:30pm 17.7 NNW 11 15 1011.2 - 0.0 - Partly cloudy 10 - - - -
18/11:00pm 17.4 NW 6 9 1012.5 - 0.0 - Partly cloudy 10 - - - -
18/10:30pm 17.0 N 8 11 1012.2 - 0.0 - Partly cloudy 10 - - - -
18/10:00pm 17.5 N 12 17 1012.8 - 0.0 - Partly cloudy 10 - - - -
18/09:30pm 18.4 NNE 9 13 1013.4 - 0.0 - Partly cloudy 10 - - - -
18/09:00pm 18.4 NNE 8 10 1013.5 - 0.0 - - 10 - - - -
18/08:30pm 19.5 N 10 12 1013.2 - 0.0 - - 10 - - - -
18/08:00pm 20.2 N 9 13 1013.5 - 0.0 - - 10 - - - -
18/07:30pm 19.8 N 8 12 1013.8 - 0.0 - - 10 - - - -
18/07:00pm 19.6 N 8 11 1013.9 - 0.0 - - 10 - - - -
18/06:30pm 20.0 N 9 12 1013.8 - 0.0 - - 10 - - - -
18/06:00pm 20.1 N 8 10 1013.5 - 0.0 - Mostly clear 10 - - - -
18/05:30pm 20.3 NNE 10 15 1013.3 - 0.0 - - 10 - - - -
18/05:00pm 20.9 NNE 9 13 1013.5 - 0.0 - - 10 - - - -
18/04:30pm 22.0 NNE 9 12 1013.4 - 0.0 - - 10 - - - -
18/04:00pm 23.2 N 11 17 1013.5 - 0.0 - - 10 - - - -
18/03:30pm 23.6 NNE 9 13 1013.4 - 0.0 - - 10 - - - -
18/03:00pm 24.4 NNE 10 14 1013.6 - 0.0 - - 10 - - - -
18/02:30pm 25.0 NNE 12 17 1013.7 - 0.0 - - 10 - - - -
18/02:00pm 25.7 NNW 11 16 1013.8 - 0.0 - - 10 - - - -
18/01:30pm 25.3 NNW 11 17 1014.4 - 0.0 - - 10 - - - -
18/01:00pm 25.8 NNW 10 15 1015.1 - 0.0 - - 10 - - - -
18/12:30pm 25.6 NNW 9 13 1015.6 - 0.0 - - 10 - - - -
18/12:00pm 25.1 NW 11 18 1016.3 - 0.0 - - 10 - - - -
18/11:30am 24.8 NNW 8 13 1017.1 - 0.0 - - 10 - - - -
18/11:00am 24.3 N 9 14 1017.6 - 0.0 - - 10 - - - -
18/10:30am 24.1 NNW 7 10 1018.1 - 0.0 - - 10 - - - -
18/10:00am 23.3 NNW 8 10 1018.5 - 0.0 - - 10 - - - -
18/09:30am 22.1 N 9 13 1018.8 - 0.0 - - 10 - - - -
18/09:00am 21.4 N 6 10 1019.3 - 0.0 - - 10 - - - -
18/08:30am 20.6 NNW 1 4 1019.3 - 0.0 - - 10 - - - -
18/08:00am 19.2 N 7 9 1019.1 - 0.0 - - 10 - - - -
18/07:30am 18.1 N 8 10 1019.0 - 0.0 - - 10 - - - -
18/07:00am 17.4 NNE 7 9 1018.9 - 0.0 - - 10 - - - -

Other Formats:

Comma delimited format used in spreadsheet applications
http://www.bom.gov.au/fwo/IDN60701/IDN60701.94596.axf

JavaScript Object Notation format (JSON) in row-major order
http://www.bom.gov.au/fwo/IDN60701/IDN60701.94596.json